Latest Coastal Weather Observations for Warrnambool

IDV60701

Issued at 6:51 pm EST Sunday 30 April 2017 (issued every 10 minutes, with the page automatically refreshed every 10 minutes)

About coastal observations | Map of coastal stations | Coastal observations for VIC | Marine services | Other Formats
Station Details ID: 090186 Name: WARRNAMBOOL AIRPORT NDB Lat: -38.29 Lon: 142.45 Height: 70.8 m
Data from the previous 72 hours. | See also: Recent months at Warrnambool
Date/Time
EST
Temp
°C
Wind Pressure Rain since
9am
mm
Weather Cloud Vis
km
Sea
Height
m
Swell
Dir  Spd
kts
Gust
kts
hPa Trend Height
m
Period
s
Dir
30/06:30pm 14.7 N 9 11 1017.4 - 0.0 - Cloudy 10 - - - -
30/06:00pm 14.8 N 9 12 1017.7 - 0.0 - Cloudy 10 - - - -
30/05:30pm 15.0 N 7 10 1017.9 - 0.0 - Cloudy 10 - - - -
30/05:00pm 15.4 N 8 10 1017.9 - 0.0 - Partly cloudy 10 - - - -
30/04:30pm 15.9 NNW 8 10 1018.0 - 0.0 - Cloudy 10 - - - -
30/04:00pm 15.7 NNW 8 11 1018.2 - 0.0 - Cloudy 10 - - - -
30/03:30pm 15.9 NNW 10 13 1018.3 - 0.0 - Partly cloudy 10 - - - -
30/03:00pm 15.8 N 7 10 1018.6 - 0.0 - Cloudy 10 - - - -
30/02:30pm 15.7 NNW 7 9 1018.8 - 0.0 - Cloudy 10 - - - -
30/02:00pm 15.8 NNW 9 11 1019.0 - 0.0 - Cloudy 10 - - - -
30/01:30pm 15.6 NNW 10 14 1019.4 - 0.0 - Partly cloudy 10 - - - -
30/01:00pm 16.1 NNW 8 12 1019.7 - 0.0 - - 10 - - - -
30/12:30pm 16.0 N 9 13 1020.2 - 0.0 - Cloudy 10 - - - -
30/12:00pm 15.7 NNW 11 15 1020.9 - 0.0 - Cloudy 10 - - - -
30/11:30am 15.3 NNW 11 15 1021.4 - 0.0 - Cloudy 10 - - - -
30/11:00am 16.6 NW 11 16 1021.7 - 0.0 - Cloudy 10 - - - -
30/10:30am 15.1 NW 12 16 1021.9 - 0.0 - Cloudy 10 - - - -
30/10:00am 14.8 NW 11 17 1022.2 - 0.0 - Cloudy 10 - - - -
30/09:30am 13.9 NW 9 11 1022.6 - 0.0 - Cloudy 10 - - - -
30/09:00am 13.5 NW 6 9 1022.8 - 0.6 - Cloudy 10 - - - -
30/08:30am 13.0 NNW 7 9 1022.7 - 0.6 - Cloudy 10 - - - -
30/08:00am 13.0 NW 8 11 1022.6 - 0.6 - Cloudy 10 - - - -
30/07:30am 12.5 WNW 5 9 1022.4 - 0.6 - Cloudy 10 - - - -
30/07:00am 12.1 NW 4 5 1022.1 - 0.6 - Cloudy 10 - - - -
30/06:30am 12.4 WNW 5 7 1022.0 - 0.6 - Cloudy 10 - - - -
30/06:00am 12.8 WNW 7 11 1022.0 - 0.6 - Cloudy 10 - - - -
30/05:30am 12.9 NW 11 16 1022.0 - 0.6 - Cloudy 10 - - - -
30/05:00am 12.5 WNW 6 8 1022.1 - 0.6 - Cloudy 10 - - - -
30/04:30am 12.5 NW 5 6 1022.0 - 0.6 - Cloudy 10 - - - -
30/04:00am 12.1 NW 4 5 1022.1 - 0.6 - Cloudy 10 - - - -
30/03:30am 12.2 NW 5 7 1022.4 - 0.6 - Cloudy 10 - - - -
30/03:00am 12.5 NW 6 8 1022.5 - 0.6 - Cloudy 10 - - - -
30/02:30am 12.3 NNW 4 5 1022.8 - 0.6 - Cloudy 10 - - - -
30/02:00am 12.9 WNW 5 6 1023.1 - 0.6 - Cloudy 10 - - - -
30/01:30am 12.9 W 6 9 1023.2 - 0.6 - Cloudy 10 - - - -
30/01:00am 12.5 WNW 4 5 1023.4 - 0.6 - Cloudy 10 - - - -
30/12:30am 12.7 WNW 5 7 1023.5 - 0.6 - Cloudy 10 - - - -
30/12:00am 13.0 WNW 6 8 1023.5 - 0.6 - Cloudy 10 - - - -
 
Date/Time
EST
Temp
°C
Wind Pressure Rain since
9am
mm
Weather Cloud Vis
km
Sea
Height
m
Swell
Dir  Spd
kts
Gust
kts
hPa Trend Height
m
Period
s
Dir
29/11:30pm 12.9 WNW 4 7 1023.7 - 0.6 - Cloudy 10 - - - -
29/11:00pm 12.5 WNW 4 5 1023.7 - 0.6 - Cloudy 10 - - - -
29/10:30pm 12.2 WNW 5 6 1023.8 - 0.6 - Cloudy 10 - - - -
29/10:00pm 12.1 NW 5 7 1023.8 - 0.6 - Cloudy 10 - - - -
29/09:30pm 12.4 NW 4 6 1023.8 - 0.6 - Cloudy 10 - - - -
29/09:00pm 12.5 WNW 4 5 1023.8 - 0.6 - Cloudy 10 - - - -
29/08:30pm 12.6 W 5 9 1023.8 - 0.6 - Cloudy 10 - - - -
29/08:00pm 11.3 WSW 7 8 1023.9 - 0.6 - Partly cloudy 10 - - - -
29/07:30pm 11.1 WSW 8 10 1024.0 - 0.6 - - 10 - - - -
29/07:00pm 10.8 W 7 7 1023.7 - 0.6 - - 10 - - - -
29/06:30pm 12.1 W 7 9 1023.5 - 0.6 - Partly cloudy 10 - - - -
29/06:00pm 12.9 W 7 8 1023.4 - 0.6 - Mostly cloudy 10 - - - -
29/05:30pm 13.1 WSW 7 9 1023.2 - 0.6 - Partly cloudy 10 - - - -
29/05:00pm 14.5 WSW 9 13 1023.3 - 0.6 - Partly cloudy 10 - - - -
29/04:30pm 14.7 SW 11 16 1023.3 - 0.6 - Partly cloudy 10 - - - -
29/04:00pm 15.1 SW 10 14 1023.3 - 0.6 - Partly cloudy 10 - - - -
29/03:30pm 15.0 SW 10 13 1023.2 - 0.6 - Partly cloudy 10 - - - -
29/03:00pm 15.0 SW 13 15 1023.1 - 0.6 - Cloudy 10 - - - -
29/02:30pm 15.1 SW 12 17 1023.1 - 0.6 - Partly cloudy 10 - - - -
29/02:12pm 15.1 SW 13 17 1023.1 - 0.6 - Partly cloudy 10 - - - -
29/02:00pm 15.3 SW 10 13 1023.1 - 0.6 - Partly cloudy 10 - - - -
29/01:53pm 15.2 SW 11 13 1023.2 - 0.6 - Partly cloudy 7 - - - -
29/01:30pm 15.3 SW 14 16 1023.2 - 0.6 - Partly cloudy 10 - - - -
29/01:21pm 15.2 SW 12 16 1023.3 - 0.6 - Partly cloudy 10 - - - -
29/01:00pm 15.0 SW 12 14 1023.3 - 0.6 - Partly cloudy 10 - - - -
29/12:31pm 14.9 SW 12 16 1023.7 - 0.6 - Partly cloudy 7 - - - -
29/12:30pm 14.7 SW 12 16 1023.7 - 0.6 - Partly cloudy 7 - - - -
29/12:00pm 14.9 SW 15 18 1023.9 - 0.6 - Cloudy 10 - - - -
29/11:59am 15.0 SW 15 18 1023.9 - 0.6 - Partly cloudy 10 - - - -
29/11:30am 15.5 SSW 13 16 1023.8 - 0.6 - Partly cloudy 10 - - - -
29/11:00am 15.5 SW 12 17 1023.7 - 0.6 - Partly cloudy 10 - - - -
29/10:34am 14.7 SW 13 17 1023.6 - 0.2 - Partly cloudy 10 - - - -
29/10:30am 15.3 SW 12 15 1023.6 - 0.2 - Partly cloudy 10 - - - -
29/10:00am 14.7 WSW 11 16 1023.6 - 0.2 - Partly cloudy 10 - - - -
29/09:39am 14.7 WSW 9 11 1023.6 - 0.2 - Partly cloudy 10 - - - -
29/09:37am 14.6 WSW 9 11 1023.6 - 0.2 - Partly cloudy 10 - - - -
29/09:30am 14.3 WSW 10 12 1023.6 - 0.2 - Partly cloudy 6 - - - -
29/09:08am 14.2 W 9 14 1023.4 - 0.0 - Partly cloudy 5 - - - -
29/09:07am 14.2 W 9 14 1023.4 - 0.0 - Partly cloudy 6 - - - -
29/09:02am 14.4 W 9 11 1023.4 - 0.0 - Partly cloudy 10 - - - -
29/09:00am 14.3 W 9 11 1023.3 - 3.0 Recent precip. Cloudy 10 - - - -
29/08:30am 14.0 W 10 14 1023.1 - 3.0 - Partly cloudy 10 - - - -
29/08:24am 13.9 W 10 13 1023.1 - 3.0 - Partly cloudy 10 - - - -
29/08:00am 13.6 WNW 8 11 1022.8 - 3.0 - Partly cloudy 5 - - - -
29/07:59am 13.7 WNW 8 11 1022.8 - 3.0 - Partly cloudy 5 - - - -
29/07:49am 13.6 WNW 7 10 1022.8 - 3.0 - Partly cloudy 10 - - - -
29/07:41am 13.5 WNW 8 11 1022.7 - 3.0 - Partly cloudy 8 - - - -
29/07:30am 13.4 WNW 7 10 1022.6 - 2.8 - Partly cloudy 3 - - - -
29/07:27am 13.4 NW 7 8 1022.5 - 2.8 - Partly cloudy 5 - - - -
29/07:00am 12.9 WNW 6 8 1022.3 - 2.8 - Partly cloudy 10 - - - -
29/06:33am 13.4 WSW 11 15 1022.2 - 2.8 - Partly cloudy 10 - - - -
29/06:30am 13.4 WSW 12 15 1022.2 - 2.8 - Partly cloudy 10 - - - -
29/06:12am 13.5 W 11 19 1022.3 - 2.8 - Partly cloudy 5 - - - -
29/06:00am 13.7 W 9 12 1022.2 - 2.6 Recent precip. Cloudy 10 - - - -
29/05:44am 13.7 W 11 14 1022.1 - 2.6 - Partly cloudy 10 - - - -
29/05:30am 13.7 W 14 19 1022.0 - 2.6 - Partly cloudy 10 - - - -
29/05:00am 13.8 W 11 16 1022.0 - 2.6 - Partly cloudy 10 - - - -
29/04:58am 13.8 W 11 16 1022.0 - 2.6 - Partly cloudy 10 - - - -
29/04:33am 13.9 W 9 13 1021.8 - 2.4 - Partly cloudy 5 - - - -
29/04:30am 13.9 W 10 13 1021.8 - 2.4 - Partly cloudy 8 - - - -
29/04:21am 13.9 W 11 15 1021.8 - 2.4 - Partly cloudy 10 - - - -
29/04:04am 13.8 WNW 9 14 1021.7 - 2.4 - Cloudy 5 - - - -
29/04:01am 13.8 WNW 9 12 1021.7 - 2.4 - Cloudy 9 - - - -
29/04:00am 13.8 W 9 12 1021.8 - 2.4 - Cloudy 9 - - - -
29/03:30am 13.7 WNW 8 12 1021.8 - 2.0 - Cloudy 3 - - - -
29/03:00am 13.7 WNW 8 12 1021.9 - 1.8 Showers Cloudy 6 - - - -
29/02:30am 13.7 WNW 7 11 1022.2 - 1.6 - Partly cloudy 3 - - - -
29/02:25am 13.7 NW 8 11 1022.2 - 1.6 - Partly cloudy 5 - - - -
29/02:16am 13.7 NW 9 11 1022.2 - 1.6 - Partly cloudy 10 - - - -
29/02:14am 13.7 NW 9 11 1022.2 - 1.6 - Partly cloudy 10 - - - -
29/02:03am 13.7 NW 11 13 1022.2 - 1.6 - Partly cloudy 10 - - - -
29/02:00am 13.7 NW 11 14 1022.2 - 1.6 - Partly cloudy 10 - - - -
29/01:58am 13.7 NW 11 14 1022.2 - 1.6 - Partly cloudy 10 - - - -
29/01:30am 13.8 WNW 8 11 1022.3 - 1.6 - Partly cloudy 10 - - - -
29/01:00am 13.7 WNW 11 14 1022.4 - 1.6 - Cloudy 10 - - - -
29/12:30am 13.7 WNW 10 14 1022.5 - 1.4 - Partly cloudy 3 - - - -
29/12:08am 13.6 WNW 8 12 1022.6 - 1.4 - Partly cloudy 5 - - - -
29/12:00am 13.6 WNW 8 11 1022.6 - 1.4 Recent precip. Cloudy 10 - - - -
 
Date/Time
EST
Temp
°C
Wind Pressure Rain since
9am
mm
Weather Cloud Vis
km
Sea
Height
m
Swell
Dir  Spd
kts
Gust
kts
hPa Trend Height
m
Period
s
Dir
28/11:52pm 13.6 WNW 8 12 1022.6 - 1.4 - Partly cloudy 10 - - - -
28/11:40pm 13.6 WNW 9 14 1022.7 - 1.4 - Partly cloudy 3 - - - -
28/11:30pm 13.7 WNW 12 17 1022.8 - 1.4 - Partly cloudy 3 - - - -
28/11:28pm 13.7 WNW 11 17 1022.9 - 1.4 - Partly cloudy 5 - - - -
28/11:11pm 13.4 WNW 8 11 1022.8 - 1.4 - Partly cloudy 10 - - - -
28/11:00pm 13.6 WNW 10 14 1022.8 - 1.4 - Partly cloudy 10 - - - -
28/10:30pm 13.8 WNW 9 12 1023.1 - 1.4 - Partly cloudy 10 - - - -
28/10:29pm 13.8 WNW 10 12 1023.1 - 1.4 - Cloudy 10 - - - -
28/10:00pm 13.9 WNW 8 11 1023.2 - 1.2 - Partly cloudy 4 - - - -
28/09:59pm 13.9 WNW 8 11 1023.2 - 1.2 - Partly cloudy 5 - - - -
28/09:49pm 13.9 WNW 9 13 1023.2 - 1.2 - Partly cloudy 10 - - - -
28/09:30pm 13.9 WNW 9 13 1023.3 - 1.2 - Partly cloudy 3 - - - -
28/09:02pm 14.0 WNW 8 12 1023.1 - 0.8 - Partly cloudy 5 - - - -
28/09:00pm 14.0 WNW 8 12 1023.1 - 0.8 Recent precip. Cloudy 9 - - - -
28/08:46pm 14.0 WNW 8 11 1023.1 - 0.8 - Partly cloudy 10 - - - -
28/08:30pm 14.0 NW 9 13 1023.1 - 0.8 - Partly cloudy 3 - - - -
28/08:26pm 14.0 NW 8 11 1023.1 - 0.6 - Partly cloudy 5 - - - -
28/08:00pm 14.0 WNW 10 13 1023.1 - 0.6 - Partly cloudy 10 - - - -
28/07:56pm 14.0 WNW 10 13 1023.0 - 0.6 - Partly cloudy 10 - - - -
28/07:30pm 14.1 WNW 9 12 1023.3 - 0.6 - Partly cloudy 3 - - - -
28/07:26pm 14.2 WNW 9 13 1023.3 - 0.4 - Partly cloudy 5 - - - -
28/07:00pm 14.3 WNW 11 14 1023.2 - 0.4 - Partly cloudy 10 - - - -
28/06:37pm 14.2 WNW 13 17 1023.0 - 0.4 - Partly cloudy 10 - - - -
28/06:30pm 14.3 W 13 19 1023.0 - 0.4 - Partly cloudy 10 - - - -
28/06:00pm 14.5 W 14 19 1022.9 - 0.4 Rain Cloudy 10 - - - -
28/05:48pm 14.4 W 15 22 1022.8 - 0.4 - Partly cloudy 10 - - - -
28/05:31pm 14.4 W 18 25 1022.7 - 0.4 - Partly cloudy 5 - - - -
28/05:30pm 14.5 W 17 24 1022.7 - 0.4 - Partly cloudy 6 - - - -
28/05:00pm 15.2 W 17 23 1022.5 - 0.4 - Partly cloudy 10 - - - -
28/04:30pm 15.6 WNW 14 19 1022.4 - 0.4 - Partly cloudy 10 - - - -
28/04:21pm 15.1 W 15 22 1022.6 - 0.4 - Partly cloudy 10 - - - -
28/04:00pm 15.2 W 14 19 1022.6 - 0.4 - Partly cloudy 10 - - - -
28/03:30pm 15.1 W 15 20 1022.7 - 0.2 - Partly cloudy 7 - - - -
28/03:00pm 15.6 W 16 22 1022.6 - 0.2 - Cloudy 10 - - - -
28/02:51pm 15.9 W 16 21 1022.6 - 0.2 - Partly cloudy 10 - - - -
28/02:30pm 16.4 W 14 19 1022.5 - 0.2 - Partly cloudy 10 - - - -
28/02:00pm 15.4 W 15 21 1022.8 - 0.2 - Partly cloudy 6 - - - -
28/01:30pm 16.1 W 15 18 1022.9 - 0.2 - Partly cloudy 10 - - - -
28/01:00pm 15.4 W 14 19 1023.3 - 0.2 - Partly cloudy 10 - - - -
28/12:49pm 15.5 W 15 20 1023.3 - 0.2 - Partly cloudy 10 - - - -
28/12:33pm 15.3 W 16 21 1023.5 - 0.2 - Partly cloudy 10 - - - -
28/12:30pm 15.2 W 15 21 1023.6 - 0.2 - Partly cloudy 10 - - - -
28/12:16pm 15.1 W 17 23 1023.9 - 0.2 - Partly cloudy 5 - - - -
28/12:00pm 15.7 W 13 18 1023.9 - 0.2 Showers Cloudy 10 - - - -
28/11:30am 15.3 W 15 20 1024.0 - 0.2 - Partly cloudy 10 - - - -
28/11:22am 15.5 W 13 20 1024.0 - 0.2 - Partly cloudy 10 - - - -
28/11:00am 15.0 W 12 15 1024.2 - 0.0 - Partly cloudy 5 - - - -
28/10:40am 15.0 W 11 14 1024.2 - 0.0 - Cloudy 5 - - - -
28/10:35am 14.8 WNW 11 14 1024.2 - 0.0 - Cloudy 7 - - - -
28/10:30am 14.8 WNW 10 14 1024.2 - 0.0 - Cloudy 10 - - - -
28/10:17am 14.7 W 12 15 1024.1 - 0.0 - Partly cloudy 5 - - - -
28/10:00am 14.6 WNW 12 16 1024.2 - 0.0 - Partly cloudy 10 - - - -
28/09:45am 14.4 WNW 11 17 1024.3 - 0.0 - Partly cloudy 10 - - - -
28/09:30am 14.1 WNW 8 12 1024.2 - 0.0 - Cloudy 4 - - - -
28/09:22am 14.0 WNW 8 11 1024.1 - 0.0 - Partly cloudy 5 - - - -
28/09:11am 13.9 WNW 8 12 1024.0 - 0.0 - Partly cloudy 10 - - - -
28/09:00am 13.7 WNW 8 11 1024.0 - 1.0 Showers Mostly cloudy 4 - - - -
28/08:43am 13.5 WNW 7 11 1023.8 - - - Cloudy 5 - - - -
28/08:36am 13.5 NW 8 11 1023.7 - - - Cloudy 10 - - - -
28/08:30am 13.4 NW 8 11 1023.6 - - - Cloudy 9 - - - -
28/08:10am 13.2 NW 11 16 1023.4 - - - Cloudy 5 - - - -
28/08:00am 13.1 NW 9 13 1023.3 - - - Cloudy 9 - - - -
28/07:58am 13.0 NW 10 14 1023.3 - - - Cloudy 10 - - - -
28/07:30am 12.8 WNW 8 11 1023.1 - - - Cloudy 5 - - - -
28/07:00am 12.7 NW 10 15 1022.9 - - - Partly cloudy 4 - - - -
28/06:57am 12.6 NW 11 15 1022.9 - - - Partly cloudy 5 - - - -
28/06:30am 12.4 NW 10 14 1022.8 - - - Partly cloudy 10 - - - -
28/06:14am 12.4 NW 12 15 1022.8 - - - Partly cloudy 10 - - - -
28/06:00am 12.4 NW 12 16 1022.9 - - Showers Cloudy 4 - - - -
28/05:52am 12.4 NW 12 16 1022.8 - - - Partly cloudy 5 - - - -
28/05:30am 12.2 NW 12 15 1022.7 - - - Partly cloudy 8 - - - -
28/05:29am 12.2 NW 12 15 1022.7 - - - Partly cloudy 8 - - - -
28/05:00am 11.8 NW 11 13 1022.3 - - - Partly cloudy 10 - - - -
28/04:57am 11.8 NW 11 13 1022.3 - - - Partly cloudy 10 - - - -
28/04:47am 12.1 NW 9 14 1022.4 - - - Partly cloudy 5 - - - -
28/04:30am 11.8 NW 11 15 1022.3 - - - Partly cloudy 10 - - - -
28/04:00am 11.7 NW 9 14 1022.5 - - - Partly cloudy 10 - - - -
28/03:30am 11.5 NW 11 14 1022.5 - - - Partly cloudy 10 - - - -
28/03:00am 11.7 NW 10 14 1022.6 - 0.0 - Cloudy 10 - - - -
28/02:30am 11.9 NW 10 14 1022.7 - - - Partly cloudy 10 - - - -
28/02:00am 12.0 NW 11 14 1022.7 - - - Partly cloudy 10 - - - -
28/01:30am 11.8 NW 10 13 1022.9 - - - Cloudy 10 - - - -
28/01:00am 11.3 NW 11 13 1023.1 - - - Cloudy 10 - - - -
28/12:30am 11.2 NNW 11 14 1023.2 - - - Cloudy 10 - - - -
28/12:00am 11.4 NW 10 13 1023.2 - - - Mostly cloudy 10 - - - -
 
Date/Time
EST
Temp
°C
Wind Pressure Rain since
9am
mm
Weather Cloud Vis
km
Sea
Height
m
Swell
Dir  Spd
kts
Gust
kts
hPa Trend Height
m
Period
s
Dir
27/11:30pm 11.1 NW 10 13 1023.3 - - - Partly cloudy 10 - - - -
27/11:00pm 11.3 NW 10 13 1023.5 - - - Partly cloudy 10 - - - -
27/10:30pm 11.4 NW 11 14 1023.5 - - - Partly cloudy 10 - - - -
27/10:00pm 11.3 NW 10 13 1023.4 - - - Cloudy 10 - - - -
27/09:30pm 11.4 NW 10 13 1023.3 - - - Partly cloudy 10 - - - -
27/09:00pm 11.4 NW 8 11 1023.5 - 0.0 Showers Cloudy 10 - - - -
27/08:30pm 11.1 NW 9 11 1023.4 - - - Partly cloudy 10 - - - -
27/08:00pm 11.3 WNW 8 12 1023.5 - - - Partly cloudy 10 - - - -
27/07:30pm 11.0 NW 9 11 1023.3 - - - Partly cloudy 10 - - - -
27/07:00pm 11.1 NW 10 13 1023.3 - - - Partly cloudy 10 - - - -

Other Formats:

Comma delimited format used in spreadsheet applications
http://www.bom.gov.au/fwo/IDV60701/IDV60701.94837.axf

JavaScript Object Notation format (JSON) in row-major order
http://www.bom.gov.au/fwo/IDV60701/IDV60701.94837.json